Terminal Aerodrome Forecast
Issued by NWS Charleston, SC

Home | Current Version | Previous Version | Text Only | Print | Product List | Glossary On
Versions: 1 2 3 4 5 6 7 8 9 10 11 12 13 14 15 16 17 18 19
000
FTUS42 KCHS 262237 AAA
TAFCHS
TAF AMD
KCHS 262237Z 2623/2718 29012G18KT P6SM SCT040
     FM262330 03012G18KT P6SM VCTS SCT025CB BKN080
     FM270200 01011KT P6SM SCT008 BKN012
     FM270800 36005KT P6SM SCT015 BKN026
     FM271200 35004KT P6SM FEW040=

USA.gov is the U.S. government's official web portal to all federal, state and local government web resources and services.